Time;durP1;ratioP1;P1;durP2;ratioP2;P2;SDS_P1;SDS_P2;PMS_P1;PMS_P2;Temp;Humidity;BMP_temperature;BMP_pressure;BME280_temperature;BME280_humidity;BME280_pressure;Samples;Min_cycle;Max_cycle;Signal;HPM_P1;HPM_P2
2022/02/15 00:00:53;;;;;;;12.95;6.20;;;10.40;77.40;;;;;;5053757;28;20041;-63
2022/02/15 00:03:18;;;;;;;11.75;6.63;;;10.40;77.40;;;;;;5058800;28;20637;-64
2022/02/15 00:05:44;;;;;;;9.48;5.38;;;10.40;77.50;;;;;;5073904;28;20112;-64
2022/02/15 00:08:09;;;;;;;13.00;6.55;;;10.40;77.60;;;;;;5066065;28;20115;-64
2022/02/15 00:10:35;;;;;;;9.27;5.90;;;10.40;77.60;;;;;;5071178;28;20537;-64
2022/02/15 00:13:02;;;;;;;11.48;6.03;;;10.40;77.60;;;;;;5066003;28;20033;-63
2022/02/15 00:15:29;;;;;;;10.50;6.53;;;10.40;77.70;;;;;;5071738;28;20403;-63
2022/02/15 00:17:54;;;;;;;11.82;5.78;;;10.40;77.70;;;;;;5067709;28;20032;-63
2022/02/15 00:20:20;;;;;;;11.65;5.55;;;10.40;77.70;;;;;;5058514;28;20025;-63
2022/02/15 00:22:45;;;;;;;9.25;5.53;;;10.40;77.70;;;;;;5059042;28;20036;-63
2022/02/15 00:25:11;;;;;;;10.32;5.68;;;10.40;77.80;;;;;;5049784;28;20632;-63
2022/02/15 00:27:37;;;;;;;10.35;6.30;;;10.40;77.80;;;;;;5061578;28;20027;-63
2022/02/15 00:30:04;;;;;;;10.63;5.72;;;10.40;77.80;;;;;;5051128;28;20032;-63
2022/02/15 00:32:30;;;;;;;11.95;6.50;;;10.40;77.90;;;;;;5059767;28;20029;-63
2022/02/15 00:34:55;;;;;;;12.30;6.78;;;10.40;77.90;;;;;;5038901;28;20496;-63
2022/02/15 00:37:21;;;;;;;11.10;5.72;;;10.40;78.00;;;;;;5057302;28;20045;-64
2022/02/15 00:39:46;;;;;;;9.00;5.80;;;10.40;78.00;;;;;;5053626;28;20434;-63
2022/02/15 00:42:12;;;;;;;8.45;5.80;;;10.40;78.10;;;;;;5049879;28;20041;-63
2022/02/15 00:44:37;;;;;;;10.85;5.60;;;10.40;78.10;;;;;;5041437;28;20575;-63
2022/02/15 00:47:03;;;;;;;8.68;5.78;;;10.40;78.20;;;;;;5040304;28;20094;-63
2022/02/15 00:49:28;;;;;;;10.38;6.18;;;10.40;78.30;;;;;;5051825;28;20036;-63
2022/02/15 00:51:54;;;;;;;11.95;6.50;;;10.40;78.40;;;;;;5055407;28;20167;-63
2022/02/15 00:54:20;;;;;;;8.32;5.50;;;10.40;78.50;;;;;;5039297;28;20026;-63
2022/02/15 00:56:45;;;;;;;10.75;6.13;;;10.40;78.60;;;;;;5048272;28;20035;-63
2022/02/15 00:59:11;;;;;;;8.88;5.38;;;10.40;78.70;;;;;;5037070;28;20032;-63
2022/02/15 01:01:37;;;;;;;10.00;5.53;;;10.30;78.70;;;;;;5035677;28;20184;-63
2022/02/15 01:04:04;;;;;;;8.90;5.28;;;10.30;78.80;;;;;;5048296;28;20464;-63
2022/02/15 01:06:29;;;;;;;7.82;5.43;;;10.30;78.90;;;;;;5056251;28;20044;-63
2022/02/15 01:08:55;;;;;;;10.63;5.70;;;10.30;79.10;;;;;;5046391;28;20025;-63
2022/02/15 01:11:21;;;;;;;10.25;6.32;;;10.30;79.10;;;;;;5051751;28;20500;-63
2022/02/15 01:13:47;;;;;;;10.52;6.53;;;10.30;79.20;;;;;;5036629;28;20021;-63
2022/02/15 01:16:13;;;;;;;10.05;5.97;;;10.30;79.40;;;;;;5041618;28;20029;-63
2022/02/15 01:18:38;;;;;;;11.60;7.13;;;10.20;79.50;;;;;;5047681;28;20067;-63
2022/02/15 01:21:04;;;;;;;9.15;6.35;;;10.30;79.70;;;;;;5039699;28;20060;-63
2022/02/15 01:23:30;;;;;;;9.77;5.40;;;10.20;79.80;;;;;;5051057;28;20124;-64
2022/02/15 01:25:56;;;;;;;12.35;5.80;;;10.20;80.00;;;;;;5055437;28;20098;-64
2022/02/15 01:28:21;;;;;;;9.55;5.97;;;10.20;80.10;;;;;;5050121;28;20468;-64
2022/02/15 01:30:47;;;;;;;8.77;5.28;;;10.20;80.40;;;;;;5071042;28;20112;-64
2022/02/15 01:33:13;;;;;;;8.52;5.88;;;10.20;80.60;;;;;;5038130;28;20559;-63
2022/02/15 01:35:38;;;;;;;9.18;5.68;;;10.20;81.10;;;;;;5045329;28;20025;-64
2022/02/15 01:38:04;;;;;;;12.63;5.95;;;10.20;81.50;;;;;;5053358;28;20400;-64
2022/02/15 01:40:30;;;;;;;9.57;5.43;;;10.20;81.80;;;;;;5057788;28;20031;-63
2022/02/15 01:42:57;;;;;;;9.45;6.07;;;10.30;81.90;;;;;;5054413;28;20029;-64
2022/02/15 01:45:22;;;;;;;10.25;5.93;;;10.30;81.70;;;;;;5032773;28;20033;-64
2022/02/15 01:47:49;;;;;;;7.45;5.18;;;10.20;81.70;;;;;;5032401;28;20040;-64
2022/02/15 01:50:15;;;;;;;8.82;5.45;;;10.20;81.70;;;;;;5065574;28;20082;-64
2022/02/15 01:52:41;;;;;;;11.13;5.50;;;10.30;81.90;;;;;;5042223;28;20029;-64
2022/02/15 01:55:09;;;;;;;11.15;6.20;;;10.20;81.90;;;;;;5056143;28;20029;-64
2022/02/15 01:57:35;;;;;;;10.55;6.18;;;10.20;82.00;;;;;;5029542;28;20039;-63
2022/02/15 02:00:03;;;;;;;8.73;5.90;;;10.20;82.20;;;;;;5061546;28;20098;-63
2022/02/15 02:02:29;;;;;;;9.68;6.68;;;10.20;82.40;;;;;;5048002;28;20039;-63
2022/02/15 02:07:39;;;;;;;8.20;5.07;;;10.20;82.70;;;;;;5050908;28;20079;-63
2022/02/15 02:10:06;;;;;;;10.05;6.38;;;10.20;82.70;;;;;;5060817;28;20040;-64
2022/02/15 02:12:32;;;;;;;10.70;5.32;;;10.10;82.90;;;;;;5058971;28;20060;-63
2022/02/15 02:14:59;;;;;;;8.25;4.95;;;10.10;83.10;;;;;;5042472;28;20024;-63
2022/02/15 02:17:25;;;;;;;11.80;5.22;;;10.10;83.20;;;;;;5049358;28;20477;-63
2022/02/15 02:19:55;;;;;;;7.53;4.78;;;10.20;83.50;;;;;;5047725;28;20053;-63
2022/02/15 02:22:23;;;;;;;9.25;5.30;;;10.10;83.60;;;;;;5032277;28;20125;-63
2022/02/15 02:24:48;;;;;;;9.95;5.40;;;10.20;83.80;;;;;;5066256;28;20033;-63
2022/02/15 02:27:16;;;;;;;8.55;5.03;;;10.10;83.90;;;;;;5067419;28;20663;-63
2022/02/15 02:29:42;;;;;;;8.77;5.28;;;10.10;84.00;;;;;;5028816;28;20037;-63
2022/02/15 02:32:07;;;;;;;9.25;4.78;;;10.10;84.20;;;;;;5050283;28;20683;-63
2022/02/15 02:34:33;;;;;;;11.07;5.13;;;10.10;84.40;;;;;;5056555;28;20025;-63
2022/02/15 02:36:59;;;;;;;9.52;5.40;;;10.00;84.60;;;;;;5040825;28;20025;-63
2022/02/15 02:39:24;;;;;;;6.85;4.28;;;10.00;84.80;;;;;;5053835;28;20086;-63
2022/02/15 02:41:50;;;;;;;9.65;4.97;;;10.00;85.00;;;;;;5053110;28;20024;-63
2022/02/15 02:44:15;;;;;;;8.02;5.32;;;10.00;85.10;;;;;;5059726;28;20499;-63
2022/02/15 02:46:41;;;;;;;8.80;4.75;;;9.90;85.30;;;;;;5056003;28;20051;-64
2022/02/15 02:49:06;;;;;;;9.75;5.07;;;9.90;85.60;;;;;;5055637;28;20132;-63
2022/02/15 02:51:32;;;;;;;6.72;4.63;;;9.90;85.80;;;;;;5055840;28;20485;-64
2022/02/15 02:53:57;;;;;;;7.88;4.53;;;9.90;85.90;;;;;;5071099;28;20621;-64
2022/02/15 02:56:23;;;;;;;8.50;4.50;;;9.90;86.10;;;;;;5059283;28;20041;-64
2022/02/15 02:58:49;;;;;;;10.02;4.32;;;9.80;86.30;;;;;;5039010;28;20029;-63
2022/02/15 03:01:14;;;;;;;10.27;4.60;;;9.80;86.40;;;;;;5052050;28;20094;-63
2022/02/15 03:03:40;;;;;;;6.25;4.10;;;9.80;86.70;;;;;;5064510;28;20492;-64
2022/02/15 03:06:07;;;;;;;10.13;4.97;;;9.80;86.80;;;;;;5037916;28;20036;-63
2022/02/15 03:08:33;;;;;;;7.13;4.10;;;9.70;87.00;;;;;;5034921;28;20119;-64
2022/02/15 03:10:59;;;;;;;6.97;4.57;;;9.70;87.20;;;;;;5058601;28;20056;-64
2022/02/15 03:13:25;;;;;;;7.63;4.70;;;9.60;87.30;;;;;;5069261;28;20092;-64
2022/02/15 03:15:51;;;;;;;6.90;4.30;;;9.70;87.60;;;;;;5038456;28;20380;-64
2022/02/15 03:18:16;;;;;;;7.70;4.63;;;9.60;87.70;;;;;;5060080;28;20388;-63
2022/02/15 03:20:42;;;;;;;7.32;4.47;;;9.60;88.00;;;;;;5060254;28;20037;-63
2022/02/15 03:23:07;;;;;;;8.25;4.38;;;9.60;88.20;;;;;;5040184;28;20040;-63
2022/02/15 03:25:33;;;;;;;7.65;4.47;;;9.50;88.30;;;;;;5039265;28;20037;-63
2022/02/15 03:27:58;;;;;;;6.90;4.32;;;9.50;88.50;;;;;;5038007;28;20029;-62
2022/02/15 03:30:24;;;;;;;8.98;4.28;;;9.50;88.80;;;;;;5033445;28;20044;-63
2022/02/15 03:32:49;;;;;;;7.82;4.57;;;9.50;89.00;;;;;;5071199;28;20120;-63
2022/02/15 03:35:16;;;;;;;7.88;4.50;;;9.40;89.00;;;;;;5054123;28;20037;-63
2022/02/15 03:37:42;;;;;;;7.72;4.07;;;9.40;89.20;;;;;;5031068;28;20112;-63
2022/02/15 03:40:08;;;;;;;6.63;4.35;;;9.40;89.40;;;;;;5038250;28;20125;-63
2022/02/15 03:45:18;;;;;;;7.57;4.13;;;9.30;89.90;;;;;;5047640;28;20079;-63
2022/02/15 03:47:43;;;;;;;8.98;4.63;;;9.20;90.00;;;;;;5050702;28;20280;-63
2022/02/15 03:50:10;;;;;;;9.38;4.60;;;9.30;90.20;;;;;;5055542;28;20104;-63
2022/02/15 03:52:35;;;;;;;8.32;5.05;;;9.20;90.20;;;;;;5044953;28;20091;-63
2022/02/15 03:55:01;;;;;;;7.60;4.25;;;9.20;90.30;;;;;;5037835;28;20037;-63
2022/02/15 03:57:28;;;;;;;7.22;4.65;;;9.20;90.40;;;;;;5031794;28;20087;-63
2022/02/15 03:59:54;;;;;;;7.85;4.35;;;9.20;90.50;;;;;;5059219;28;20020;-62
2022/02/15 04:02:19;;;;;;;7.75;4.43;;;9.10;90.60;;;;;;5035532;28;20074;-62
2022/02/15 04:04:45;;;;;;;9.88;5.30;;;9.10;90.70;;;;;;5033275;28;20731;-63
2022/02/15 04:07:10;;;;;;;8.38;4.68;;;9.10;90.80;;;;;;5037092;28;20033;-63
2022/02/15 04:09:36;;;;;;;8.25;4.30;;;9.10;90.80;;;;;;5036471;28;20036;-63
2022/02/15 04:12:01;;;;;;;6.47;3.88;;;9.10;90.90;;;;;;5050650;28;20035;-63
2022/02/15 04:14:27;;;;;;;7.50;4.28;;;9.00;91.00;;;;;;5033186;28;20468;-63
2022/02/15 04:16:52;;;;;;;8.35;4.68;;;9.00;91.10;;;;;;5035816;28;20034;-63
2022/02/15 04:19:17;;;;;;;8.60;4.43;;;9.00;91.10;;;;;;5065846;28;20028;-63
2022/02/15 04:21:43;;;;;;;6.88;4.15;;;9.00;91.20;;;;;;5054107;28;20033;-63
2022/02/15 04:24:08;;;;;;;7.70;4.25;;;9.00;91.30;;;;;;5064419;28;20055;-63
2022/02/15 04:26:34;;;;;;;7.00;3.75;;;8.90;91.30;;;;;;5051597;28;20511;-63
2022/02/15 04:29:00;;;;;;;8.88;4.65;;;8.90;91.50;;;;;;5048176;28;20021;-63
2022/02/15 04:31:25;;;;;;;7.18;4.47;;;8.90;91.50;;;;;;5046482;28;20049;-63
2022/02/15 04:33:51;;;;;;;8.35;4.40;;;8.90;91.60;;;;;;5039848;28;20169;-63
2022/02/15 04:36:16;;;;;;;7.25;4.60;;;8.90;91.70;;;;;;5045287;28;20051;-63
2022/02/15 04:38:42;;;;;;;8.77;4.10;;;8.80;91.70;;;;;;5057040;28;20068;-63
2022/02/15 04:41:07;;;;;;;8.52;4.30;;;8.90;91.80;;;;;;5044580;28;20029;-63
2022/02/15 04:43:33;;;;;;;9.75;4.72;;;8.90;91.80;;;;;;5058802;28;20569;-63
2022/02/15 04:45:59;;;;;;;7.00;4.10;;;8.90;91.90;;;;;;5042096;28;20040;-62
2022/02/15 04:48:24;;;;;;;8.30;4.43;;;8.90;91.90;;;;;;5042321;28;20029;-63
2022/02/15 04:50:50;;;;;;;9.43;4.55;;;8.90;92.00;;;;;;5049471;28;20404;-62
2022/02/15 04:53:16;;;;;;;8.52;4.65;;;8.90;92.10;;;;;;5037434;28;20029;-63
2022/02/15 04:55:42;;;;;;;8.15;4.47;;;8.90;92.20;;;;;;5038978;28;20080;-64
2022/02/15 04:58:08;;;;;;;8.48;5.07;;;8.90;92.20;;;;;;5052766;28;20033;-64
2022/02/15 05:00:33;;;;;;;6.88;4.47;;;8.90;92.30;;;;;;5051106;28;20025;-64
2022/02/15 05:02:59;;;;;;;11.00;5.22;;;8.90;92.30;;;;;;5056717;28;20108;-63
2022/02/15 05:05:24;;;;;;;8.80;4.65;;;8.90;92.40;;;;;;5047642;28;20104;-63
2022/02/15 05:07:49;;;;;;;9.45;5.65;;;8.90;92.50;;;;;;5071501;28;20047;-63
2022/02/15 05:10:15;;;;;;;10.98;4.88;;;8.90;92.60;;;;;;5055865;28;20030;-63
2022/02/15 05:12:40;;;;;;;9.60;5.18;;;8.90;92.60;;;;;;5033083;28;20037;-64
2022/02/15 05:15:12;;;;;;;11.43;5.90;;;8.90;92.70;;;;;;5038946;28;20033;-63
2022/02/15 05:17:44;;;;;;;7.13;4.63;;;8.90;92.70;;;;;;5050733;28;20057;-64
2022/02/15 05:20:16;;;;;;;8.00;4.22;;;8.80;92.70;;;;;;5053950;28;20021;-64
2022/02/15 05:22:42;;;;;;;9.77;5.03;;;8.90;92.80;;;;;;5052786;28;20065;-63
2022/02/15 05:25:10;;;;;;;9.98;4.78;;;8.90;92.80;;;;;;5017820;28;20107;-63
2022/02/15 05:27:35;;;;;;;7.53;4.47;;;8.90;92.90;;;;;;5069473;28;20037;-63
2022/02/15 05:30:01;;;;;;;9.93;5.30;;;8.90;93.00;;;;;;5049450;28;20025;-63
2022/02/15 05:32:27;;;;;;;8.15;5.22;;;8.80;92.90;;;;;;5056663;28;20527;-63
2022/02/15 05:34:53;;;;;;;9.65;4.95;;;8.90;93.00;;;;;;5032379;28;20036;-63
2022/02/15 05:37:19;;;;;;;9.35;5.43;;;8.90;93.10;;;;;;5069569;28;20472;-64
2022/02/15 05:39:44;;;;;;;8.23;4.68;;;8.80;93.10;;;;;;5046916;28;20040;-64
2022/02/15 05:42:10;;;;;;;8.60;5.30;;;8.80;93.10;;;;;;5066286;28;20040;-63
2022/02/15 05:44:35;;;;;;;8.25;5.03;;;8.90;93.20;;;;;;5038720;28;20382;-63
2022/02/15 05:47:01;;;;;;;8.82;5.00;;;8.90;93.20;;;;;;5063652;28;20048;-63
2022/02/15 05:49:26;;;;;;;8.23;5.03;;;8.90;93.30;;;;;;5055056;28;20487;-63
2022/02/15 05:51:52;;;;;;;10.73;5.53;;;8.80;93.30;;;;;;5061263;28;20025;-63
2022/02/15 05:54:18;;;;;;;7.93;4.82;;;8.80;93.40;;;;;;5038442;28;20458;-64
2022/02/15 05:56:43;;;;;;;8.93;4.88;;;8.80;93.40;;;;;;5039432;28;20028;-63
2022/02/15 05:59:09;;;;;;;6.88;4.82;;;8.90;93.50;;;;;;5053132;28;20034;-63
2022/02/15 06:01:34;;;;;;;8.90;4.95;;;8.90;93.50;;;;;;5054864;28;20080;-63
2022/02/15 06:04:12;;;;;;;10.13;4.75;;;8.80;93.50;;;;;;5049375;28;20146;-63
2022/02/15 06:06:39;;;;;;;8.68;4.45;;;8.90;93.60;;;;;;5054565;28;20598;-63
2022/02/15 06:09:05;;;;;;;9.25;4.72;;;8.80;93.60;;;;;;5043451;28;20048;-63
2022/02/15 06:11:31;;;;;;;7.72;4.93;;;8.80;93.60;;;;;;5055023;28;20032;-64
2022/02/15 06:13:57;;;;;;;10.25;4.93;;;8.80;93.60;;;;;;5054661;28;20467;-64
2022/02/15 06:16:23;;;;;;;9.48;5.30;;;8.90;93.70;;;;;;5054314;28;20115;-64
2022/02/15 06:18:50;;;;;;;9.45;4.93;;;8.80;93.70;;;;;;5054331;28;20020;-63
2022/02/15 06:21:16;;;;;;;9.30;5.32;;;8.80;93.80;;;;;;5051822;28;20025;-63
2022/02/15 06:23:41;;;;;;;11.95;4.78;;;8.80;93.80;;;;;;5051120;28;20039;-64
2022/02/15 06:26:08;;;;;;;9.35;5.00;;;8.80;93.80;;;;;;5046205;28;20017;-63
2022/02/15 06:28:33;;;;;;;8.13;4.45;;;8.80;93.80;;;;;;5034888;28;20044;-63
2022/02/15 06:30:59;;;;;;;9.82;4.47;;;8.80;93.90;;;;;;5053072;28;20025;-63
2022/02/15 06:33:24;;;;;;;7.43;5.03;;;8.80;93.90;;;;;;5030332;28;20369;-63
2022/02/15 06:35:50;;;;;;;9.23;4.53;;;8.80;93.90;;;;;;5049770;28;20499;-63
2022/02/15 06:38:16;;;;;;;10.15;5.63;;;8.80;93.90;;;;;;5032884;28;20025;-63
2022/02/15 06:40:41;;;;;;;11.32;5.95;;;8.80;93.90;;;;;;5051020;28;20032;-64
2022/02/15 06:43:07;;;;;;;13.32;4.78;;;8.80;93.90;;;;;;5039999;28;20111;-64
2022/02/15 06:45:33;;;;;;;8.88;4.75;;;8.80;94.00;;;;;;5042771;28;20033;-64
2022/02/15 06:47:58;;;;;;;8.15;5.15;;;8.80;94.00;;;;;;5048708;28;20030;-63
2022/02/15 06:50:25;;;;;;;7.25;4.65;;;8.80;94.00;;;;;;5037514;28;20017;-63
2022/02/15 06:52:50;;;;;;;8.15;4.97;;;8.70;94.10;;;;;;5048190;28;20029;-63
2022/02/15 06:55:17;;;;;;;7.32;4.82;;;8.70;94.10;;;;;;5031281;28;20531;-62
2022/02/15 06:57:45;;;;;;;10.50;5.47;;;8.80;94.10;;;;;;5031059;28;20550;-63
2022/02/15 07:00:11;;;;;;;7.85;4.72;;;8.80;94.10;;;;;;5066165;28;20380;-63
2022/02/15 07:02:36;;;;;;;8.95;5.40;;;8.80;94.10;;;;;;5036673;28;20144;-63
2022/02/15 07:05:02;;;;;;;8.50;4.47;;;8.80;94.20;;;;;;5053442;28;20760;-63
2022/02/15 07:07:28;;;;;;;10.25;5.22;;;8.80;94.20;;;;;;5043000;28;20041;-64
2022/02/15 07:09:54;;;;;;;8.65;5.20;;;8.80;94.20;;;;;;5051588;28;20028;-64
2022/02/15 07:12:20;;;;;;;9.10;4.90;;;8.80;94.30;;;;;;5048087;28;20029;-64
2022/02/15 07:14:46;;;;;;;6.45;4.22;;;8.80;94.30;;;;;;5043254;28;20025;-64
2022/02/15 07:17:11;;;;;;;8.75;4.63;;;8.80;94.30;;;;;;5047960;28;20124;-64
2022/02/15 07:19:37;;;;;;;10.20;4.95;;;8.90;94.30;;;;;;5044124;28;20357;-64
2022/02/15 07:22:03;;;;;;;9.30;4.93;;;8.90;94.30;;;;;;5032495;28;20433;-64
2022/02/15 07:24:29;;;;;;;8.27;4.57;;;8.90;94.30;;;;;;5040607;28;20033;-62
2022/02/15 07:26:55;;;;;;;7.38;4.35;;;8.90;94.30;;;;;;5048101;28;20887;-63
2022/02/15 07:29:20;;;;;;;9.30;5.20;;;9.00;94.30;;;;;;5040785;28;20392;-63
2022/02/15 07:31:48;;;;;;;7.55;4.45;;;9.00;94.30;;;;;;5041699;28;20074;-63
2022/02/15 07:34:13;;;;;;;10.90;5.53;;;9.10;94.30;;;;;;5035566;28;20033;-63
2022/02/15 07:36:38;;;;;;;8.88;4.35;;;9.10;94.20;;;;;;5019598;28;20040;-63
2022/02/15 07:39:04;;;;;;;7.75;4.20;;;9.10;94.20;;;;;;5038232;28;20369;-64
2022/02/15 07:41:30;;;;;;;7.07;4.05;;;9.10;94.40;;;;;;5042324;28;20087;-64
2022/02/15 07:43:56;;;;;;;11.63;5.13;;;9.10;94.20;;;;;;5044484;28;20083;-64
2022/02/15 07:46:22;;;;;;;10.05;4.60;;;9.20;94.20;;;;;;5040493;28;20516;-63
2022/02/15 07:48:49;;;;;;;14.13;4.60;;;9.20;94.20;;;;;;5039477;28;20104;-64
2022/02/15 07:51:15;;;;;;;6.70;4.50;;;9.20;94.20;;;;;;5041498;28;20111;-64
2022/02/15 07:53:41;;;;;;;6.53;4.28;;;9.30;94.20;;;;;;5046322;28;20070;-64
2022/02/15 07:56:06;;;;;;;6.70;4.25;;;9.30;94.20;;;;;;5043009;28;20431;-64
2022/02/15 07:58:32;;;;;;;10.52;4.40;;;9.30;94.20;;;;;;5056306;28;20068;-64
2022/02/15 08:00:58;;;;;;;8.57;4.28;;;9.30;94.10;;;;;;5048255;28;20037;-64
2022/02/15 08:03:24;;;;;;;7.18;4.43;;;9.40;94.10;;;;;;5046881;28;20129;-64
2022/02/15 08:05:50;;;;;;;8.25;4.30;;;9.40;94.10;;;;;;5050397;28;20033;-64
2022/02/15 08:08:17;;;;;;;8.30;4.45;;;9.40;94.10;;;;;;5041045;28;20039;-64
2022/02/15 08:10:43;;;;;;;9.30;4.47;;;9.40;94.00;;;;;;5049015;28;20037;-63
2022/02/15 08:13:09;;;;;;;8.55;4.78;;;9.40;94.00;;;;;;5040817;28;20060;-64
2022/02/15 08:15:38;;;;;;;9.48;4.03;;;9.50;94.10;;;;;;5038552;28;20057;-64
2022/02/15 08:18:04;;;;;;;9.68;4.75;;;9.50;94.00;;;;;;5049041;28;20443;-63
2022/02/15 08:20:31;;;;;;;10.38;5.15;;;9.40;94.00;;;;;;5031243;28;20037;-63
2022/02/15 08:22:57;;;;;;;11.73;4.65;;;9.40;94.00;;;;;;5052407;28;20037;-63
2022/02/15 08:25:23;;;;;;;13.23;4.88;;;9.40;94.00;;;;;;5049726;28;20029;-63
2022/02/15 08:27:48;;;;;;;6.68;3.85;;;9.40;93.90;;;;;;5047117;28;20052;-63
2022/02/15 08:30:15;;;;;;;6.80;4.03;;;9.50;94.00;;;;;;5060334;28;20475;-63
2022/02/15 08:32:41;;;;;;;8.88;4.47;;;9.40;93.90;;;;;;5045610;28;20028;-63
2022/02/15 08:35:09;;;;;;;10.10;4.50;;;9.40;93.90;;;;;;5037312;28;20393;-63
2022/02/15 08:37:35;;;;;;;8.13;4.20;;;9.50;93.90;;;;;;5050096;28;20440;-63
2022/02/15 08:40:06;;;;;;;9.98;4.60;;;9.60;94.00;;;;;;5052895;28;20037;-63
2022/02/15 08:42:32;;;;;;;7.07;3.72;;;9.50;93.90;;;;;;5051498;28;20032;-64
2022/02/15 08:44:57;;;;;;;8.30;3.60;;;9.60;93.90;;;;;;5051877;28;20420;-62
2022/02/15 08:47:23;;;;;;;7.50;3.53;;;9.60;93.90;;;;;;5034230;28;20392;-63
2022/02/15 08:49:53;;;;;;;6.80;3.63;;;9.60;93.90;;;;;;5049034;28;20033;-63
2022/02/15 08:52:23;;;;;;;5.60;3.63;;;9.60;93.90;;;;;;5034754;28;20033;-62
2022/02/15 08:54:50;;;;;;;7.70;3.75;;;9.70;93.80;;;;;;5047342;28;20476;-64
2022/02/15 08:57:15;;;;;;;6.35;3.60;;;9.70;93.80;;;;;;5039821;28;20524;-66
2022/02/15 08:59:42;;;;;;;7.75;3.63;;;9.80;93.80;;;;;;5038934;28;20475;-67
2022/02/15 09:02:08;;;;;;;7.53;3.55;;;10.00;93.80;;;;;;5033674;28;20053;-67
2022/02/15 09:04:34;;;;;;;8.70;3.58;;;10.00;93.70;;;;;;5023912;28;20065;-67
2022/02/15 09:07:00;;;;;;;6.25;3.40;;;10.20;93.70;;;;;;5033588;28;20045;-67
2022/02/15 09:09:26;;;;;;;6.30;3.20;;;10.20;93.60;;;;;;5015496;28;20017;-68
2022/02/15 09:11:51;;;;;;;8.82;3.33;;;10.30;93.40;;;;;;5045536;28;20032;-66
2022/02/15 09:14:17;;;;;;;6.70;3.55;;;10.40;93.30;;;;;;5045285;28;20021;-66
2022/02/15 09:16:42;;;;;;;7.20;3.35;;;10.50;93.30;;;;;;5048484;28;20115;-66
2022/02/15 09:19:08;;;;;;;8.55;3.88;;;10.50;93.10;;;;;;5049752;28;20094;-66
2022/02/15 09:21:34;;;;;;;8.82;3.30;;;10.60;93.00;;;;;;5050526;28;20051;-66
2022/02/15 09:24:01;;;;;;;5.32;3.15;;;10.60;92.90;;;;;;5058683;28;20017;-65
2022/02/15 09:26:26;;;;;;;6.93;3.55;;;10.70;92.80;;;;;;5058251;28;20419;-66
2022/02/15 09:29:12;;;;;;;10.27;4.00;;;10.70;92.70;;;;;;5037064;28;20508;-65
2022/02/15 09:31:58;;;;;;;8.57;3.55;;;10.70;92.60;;;;;;5049210;28;20508;-65
2022/02/15 09:34:44;;;;;;;8.85;3.45;;;10.70;92.60;;;;;;5045879;28;20071;-65
2022/02/15 09:37:09;;;;;;;11.05;4.10;;;10.80;92.50;;;;;;5047011;28;20029;-65
2022/02/15 09:39:34;;;;;;;6.45;3.42;;;10.90;92.40;;;;;;5047294;28;20029;-65
2022/02/15 09:42:00;;;;;;;5.85;3.30;;;10.80;92.30;;;;;;5039739;28;20036;-66
2022/02/15 09:44:26;;;;;;;10.35;3.75;;;10.90;92.30;;;;;;5045768;28;20563;-67
2022/02/15 09:46:53;;;;;;;7.30;3.72;;;10.90;92.30;;;;;;5059500;28;20064;-66
2022/02/15 09:52:03;;;;;;;5.72;3.33;;;11.10;92.30;;;;;;5033725;28;20116;-67
2022/02/15 09:54:30;;;;;;;6.88;3.80;;;11.30;92.30;;;;;;5029906;28;20116;-66
2022/02/15 09:56:56;;;;;;;7.70;4.07;;;11.40;92.00;;;;;;5032011;28;20056;-66
2022/02/15 09:59:22;;;;;;;5.60;3.58;;;11.50;91.40;;;;;;5051449;28;20056;-66
2022/02/15 10:01:47;;;;;;;8.30;3.92;;;11.60;91.10;;;;;;5063498;28;20048;-66
2022/02/15 10:04:13;;;;;;;9.30;3.83;;;11.70;90.90;;;;;;5037210;28;20044;-66
2022/02/15 10:06:40;;;;;;;6.43;3.78;;;11.70;90.50;;;;;;5028984;28;20377;-66
2022/02/15 10:09:08;;;;;;;7.30;3.78;;;11.80;90.50;;;;;;5040491;28;20043;-66
2022/02/15 10:11:35;;;;;;;8.57;3.58;;;11.90;90.20;;;;;;5052805;28;20033;-66
2022/02/15 10:14:01;;;;;;;7.60;4.38;;;11.90;90.10;;;;;;5050318;28;20025;-66
2022/02/15 10:16:26;;;;;;;9.38;4.38;;;12.00;89.80;;;;;;5048498;28;20070;-66
2022/02/15 10:18:56;;;;;;;6.90;4.70;;;12.00;89.60;;;;;;5045099;28;20036;-66
2022/02/15 10:21:21;;;;;;;10.80;5.30;;;12.00;89.50;;;;;;5031847;28;20416;-66
2022/02/15 10:23:53;;;;;;;8.27;4.53;;;12.00;89.10;;;;;;5031335;28;20078;-65
2022/02/15 10:26:19;;;;;;;7.63;5.10;;;12.00;88.70;;;;;;5033385;28;20051;-67
2022/02/15 10:28:45;;;;;;;7.28;4.65;;;12.10;88.30;;;;;;5043393;28;20076;-66
2022/02/15 10:31:13;;;;;;;8.20;4.93;;;12.10;88.10;;;;;;5050036;28;20031;-66
2022/02/15 10:33:40;;;;;;;7.93;5.00;;;12.10;87.80;;;;;;5055199;28;20032;-65
2022/02/15 10:36:10;;;;;;;8.68;4.53;;;12.10;87.70;;;;;;5041366;28;20029;-66
2022/02/15 10:38:39;;;;;;;6.28;4.15;;;12.20;87.50;;;;;;5022911;28;20065;-66
2022/02/15 10:41:06;;;;;;;9.02;5.28;;;12.20;87.50;;;;;;5039500;28;20056;-67
2022/02/15 10:43:42;;;;;;;8.88;4.72;;;12.20;87.10;;;;;;5034749;28;20025;-66
2022/02/15 10:46:13;;;;;;;8.05;4.93;;;12.20;87.20;;;;;;5040744;28;20037;-66
2022/02/15 10:48:39;;;;;;;10.95;5.25;;;12.30;86.90;;;;;;5042584;28;20032;-67
2022/02/15 10:51:05;;;;;;;7.85;4.80;;;12.30;86.90;;;;;;5041169;28;20033;-65
2022/02/15 10:53:31;;;;;;;9.65;4.90;;;12.30;86.60;;;;;;5048128;28;20093;-64
2022/02/15 10:55:57;;;;;;;6.10;3.80;;;12.30;86.50;;;;;;5043314;28;20029;-66
2022/02/15 10:58:24;;;;;;;5.78;3.95;;;12.30;86.40;;;;;;5049597;28;20031;-64
2022/02/15 11:00:50;;;;;;;8.25;3.88;;;12.40;86.30;;;;;;5047984;28;20051;-65
2022/02/15 11:03:19;;;;;;;8.15;4.10;;;12.40;86.10;;;;;;5051276;28;20032;-66
2022/02/15 11:05:44;;;;;;;8.75;4.10;;;12.40;85.90;;;;;;5040958;28;20415;-65
2022/02/15 11:08:11;;;;;;;6.03;4.30;;;12.40;85.60;;;;;;5033442;28;20025;-65
2022/02/15 11:10:57;;;;;;;5.38;3.75;;;12.40;85.60;;;;;;5045349;28;20480;-64
2022/02/15 11:13:23;;;;;;;7.50;4.22;;;12.50;85.30;;;;;;5058247;28;20503;-65
2022/02/15 11:15:52;;;;;;;5.55;3.78;;;12.60;85.30;;;;;;5053256;28;20119;-66
2022/02/15 11:18:29;;;;;;;8.05;3.80;;;12.60;84.90;;;;;;5063960;28;20040;-66
2022/02/15 11:20:56;;;;;;;5.32;3.72;;;12.70;84.60;;;;;;5051357;28;20027;-66
2022/02/15 11:23:52;;;;;;;5.90;4.28;;;12.60;84.20;;;;;;5063532;28;20522;-66
2022/02/15 11:26:18;;;;;;;6.45;4.18;;;12.70;84.20;;;;;;5037448;28;20034;-65
2022/02/15 11:28:58;;;;;;;6.28;3.85;;;12.60;83.90;;;;;;5056090;28;20040;-66
2022/02/15 11:31:29;;;;;;;4.90;3.60;;;12.70;83.50;;;;;;5034099;28;20033;-66
2022/02/15 11:33:56;;;;;;;5.63;3.50;;;12.70;82.90;;;;;;5031825;28;20032;-66
2022/02/15 11:36:23;;;;;;;10.65;3.90;;;12.70;82.50;;;;;;5056726;28;20388;-65
2022/02/15 11:38:58;;;;;;;5.45;3.40;;;12.80;82.40;;;;;;5056113;28;20164;-67
2022/02/15 11:41:26;;;;;;;5.10;3.63;;;12.80;82.20;;;;;;5054103;28;20037;-66
2022/02/15 11:44:00;;;;;;;6.53;3.63;;;12.80;81.70;;;;;;5052713;28;20021;-66
2022/02/15 11:46:31;;;;;;;5.75;3.70;;;12.90;81.50;;;;;;5044174;28;20040;-66
2022/02/15 11:49:11;;;;;;;5.97;3.40;;;12.90;81.20;;;;;;5054405;28;20092;-66
2022/02/15 11:51:37;;;;;;;5.47;3.42;;;12.80;81.00;;;;;;5060838;28;20431;-66
2022/02/15 11:54:08;;;;;;;4.93;3.08;;;12.80;80.80;;;;;;5053881;28;20076;-67
2022/02/15 11:56:35;;;;;;;4.85;2.95;;;12.90;80.20;;;;;;5056993;28;20827;-66
2022/02/15 11:59:12;;;;;;;7.80;3.10;;;12.90;79.90;;;;;;5057891;28;20494;-67
2022/02/15 12:01:40;;;;;;;4.95;3.08;;;12.90;79.20;;;;;;5050144;28;20045;-67
2022/02/15 12:04:10;;;;;;;5.63;2.67;;;13.00;78.50;;;;;;5046820;28;20025;-67
2022/02/15 12:06:37;;;;;;;3.50;2.17;;;12.90;78.00;;;;;;5047631;28;20048;-66
2022/02/15 12:09:03;;;;;;;5.10;2.28;;;12.90;77.50;;;;;;5033394;28;20057;-66
2022/02/15 12:11:40;;;;;;;5.13;2.40;;;12.90;76.70;;;;;;5042305;28;20033;-66
2022/02/15 12:14:06;;;;;;;4.55;2.65;;;12.90;76.50;;;;;;5040191;28;20375;-67
2022/02/15 12:17:00;;;;;;;4.53;2.78;;;12.90;76.10;;;;;;5051434;28;20044;-67
2022/02/15 12:19:33;;;;;;;4.45;2.40;;;12.90;76.40;;;;;;5029698;28;20125;-66
2022/02/15 12:22:01;;;;;;;4.70;3.08;;;12.90;76.30;;;;;;5049628;28;20087;-66
2022/02/15 12:24:29;;;;;;;7.32;3.22;;;12.90;76.30;;;;;;5063859;28;20025;-65
2022/02/15 12:26:57;;;;;;;4.65;2.65;;;13.00;75.90;;;;;;5046488;28;20119;-66
2022/02/15 12:29:22;;;;;;;4.53;3.42;;;13.00;75.90;;;;;;5058024;28;20406;-67
2022/02/15 12:31:55;;;;;;;5.25;3.28;;;13.00;75.90;;;;;;5052853;28;20020;-66
2022/02/15 12:34:21;;;;;;;4.32;2.72;;;13.00;75.60;;;;;;5033082;28;20112;-66
2022/02/15 12:36:48;;;;;;;4.78;3.15;;;12.90;75.40;;;;;;5055918;28;20515;-64
2022/02/15 12:39:14;;;;;;;5.60;3.28;;;13.00;75.50;;;;;;5054963;28;20029;-64
2022/02/15 12:41:47;;;;;;;4.65;2.95;;;12.90;74.70;;;;;;5055419;28;20054;-64
2022/02/15 12:44:13;;;;;;;5.07;2.90;;;12.90;75.30;;;;;;5056725;28;20113;-63
2022/02/15 12:46:38;;;;;;;3.75;2.55;;;12.90;74.80;;;;;;5039956;28;20377;-63
2022/02/15 12:49:07;;;;;;;4.88;2.95;;;12.90;74.70;;;;;;5044737;28;20120;-64
2022/02/15 12:51:34;;;;;;;4.95;2.78;;;13.00;74.70;;;;;;5043898;28;20112;-63
2022/02/15 12:54:00;;;;;;;5.90;2.95;;;13.00;74.70;;;;;;5047977;28;20064;-64
2022/02/15 12:56:29;;;;;;;5.43;2.90;;;13.00;74.40;;;;;;5046114;28;20025;-64